Nathalie — OJLP — position and weather

sailwx.info

Track history (hours):
 
Tides and Currents Weather Stations Pressure Air Temp Water Temp Dewpoint Dewpoint Depression Visibility Wind Speed Wind Dir Waves Ship Positions

Nathalie

Last reported at 2014-Sep-16 09:32 UTC. Time now 2014-Sep-16 11:31 UTC.
Position N 60°09' E 024°56'.

Length 64 m; draft 3.5 m.

Type: Cargo ship. MMSI: 230987660.

Date/timePositionNaut miles runAvg speedWind from/ knotsBaromVisibWave heightAir tempDewpointWater temp
2014-Sep-16 09:32N 60°09' E 024°56'0 0.0
2014-Sep-16 08:29N 60°09' E 024°56'0 0.0
2014-Sep-16 03:34N 60°09' E 024°56'52 7.0
2014-Sep-15 20:06N 59°37' E 026°18'9 0.5
2014-Sep-15 00:04N 59°31' E 026°33'28 1.7
2014-Sep-14 07:33N 59°60' E 026°29'7 6.9
2014-Sep-14 06:33N 60°01' E 026°42'9 8.1
2014-Sep-14 05:29N 59°60' E 026°59'95 7.9
2014-Sep-13 17:30N 59°53' E 030°09'2 0.1
2014-Sep-13 03:04N 59°53' E 030°13'104 6.2
2014-Sep-12 10:25N 59°59' E 026°46'7 7.5
2014-Sep-12 09:29N 59°58' E 026°32'54 7.4
2014-Sep-12 02:12N 59°44' E 024°48'5 7.2
2014-Sep-12 01:33N 59°43' E 024°39'7 7.4
2014-Sep-12 00:33N 59°39' E 024°27'324 7.7
2014-Sep-10 06:12N 55°01' E 019°15'5 8.1
2014-Sep-10 05:33N 54°57' E 019°11'8 8.1
2014-Sep-10 04:33N 54°49' E 019°05'8 8.3
2014-Sep-10 03:33N 54°42' E 018°59'9 8.7
2014-Sep-10 02:33N 54°34' E 018°52'9 8.8
2014-Sep-10 01:33N 54°28' E 018°42'4 3.4
2014-Sep-10 00:31N 54°24' E 018°40'0 0.0
2014-Sep-09 23:31N 54°24' E 018°40'0 0.0
2014-Sep-09 22:31N 54°24' E 018°40'0 0.0
2014-Sep-09 21:31N 54°24' E 018°40'0 0.0
2014-Sep-09 20:31N 54°24' E 018°40'0 0.0
2014-Sep-09 19:31N 54°24' E 018°40'0 0.0
2014-Sep-09 18:31N 54°24' E 018°40'0 0.0
2014-Sep-09 17:31N 54°24' E 018°40'0 0.0
2014-Sep-09 16:31N 54°24' E 018°40'0 0.0
2014-Sep-09 15:31N 54°24' E 018°40'0 0.0
2014-Sep-09 14:31N 54°24' E 018°40'0 0.0
2014-Sep-09 13:31N 54°24' E 018°40'0 0.0
2014-Sep-09 12:34N 54°24' E 018°40'0 0.0
2014-Sep-09 11:30N 54°24' E 018°40'0 0.0
2014-Sep-09 10:33N 54°24' E 018°40'3 3.1
2014-Sep-09 09:33N 54°27' E 018°41'9 9.0
2014-Sep-09 08:33N 54°34' E 018°51'9 8.8
2014-Sep-09 07:33N 54°42' E 018°57'8 7.8
2014-Sep-09 06:33N 54°49' E 018°50'8 8.0
2014-Sep-09 05:33N 54°52' E 018°37'8 7.8
2014-Sep-09 04:33N 54°56' E 018°26'9 8.6
2014-Sep-09 03:33N 55°01' E 018°14'8 8.0
2014-Sep-09 02:33N 55°05' E 018°01'114 4.2
2014-Sep-07 23:33N 55°58' E 015°04'8 8.2
2014-Sep-07 22:34N 55°59' E 015°19'8 8.1
2014-Sep-07 21:33N 55°59' E 015°33'8 8.0
2014-Sep-07 20:33N 55°59' E 015°48'8 8.1
2014-Sep-07 19:33N 56°02' E 016°02'8 8.2
2014-Sep-07 18:33N 56°03' E 016°16'8 8.0
2014-Sep-07 17:33N 56°05' E 016°30'8 7.7
2014-Sep-07 16:33N 56°09' E 016°42'8 7.7
2014-Sep-07 15:33N 56°13' E 016°53'8 7.8
2014-Sep-07 14:33N 56°18' E 017°04'8 7.6
2014-Sep-07 13:33N 56°22' E 017°16'8 7.6
2014-Sep-07 12:32N 56°27' E 017°27'8 7.7
2014-Sep-07 11:33N 56°31' E 017°38'8 7.6
2014-Sep-07 10:33N 56°36' E 017°49'8 7.8
2014-Sep-07 09:33N 56°40' E 018°01'8 7.9
2014-Sep-07 08:33N 56°45' E 018°13'8 7.9
2014-Sep-07 07:33N 56°50' E 018°24'8 8.2
2014-Sep-07 06:33N 56°54' E 018°37'8 8.3
2014-Sep-07 05:33N 56°57' E 018°51'9 8.4
2014-Sep-07 04:31N 57°01' E 019°06'8 8.3
2014-Sep-07 03:33N 57°04' E 019°19'10 8.3
2014-Sep-07 02:18N 57°08' E 019°36'9 8.3
2014-Sep-07 01:15N 57°12' E 019°51'6 8.2
2014-Sep-07 00:33N 57°14' E 020°00'8 8.1
2014-Sep-06 23:31N 57°18' E 020°15'8 8.2
2014-Sep-06 22:32N 57°22' E 020°28'  
Track history (hours):
 
Tides and Currents Weather Stations Pressure Air Temp Water Temp Dewpoint Dewpoint Depression Visibility Wind Speed Wind Dir Waves Ship Positions

Nathalie

Last reported at 2014-Sep-16 09:32 UTC. Time now 2014-Sep-16 11:31 UTC.
Position N 60°09' E 024°56'.

Length 64 m; draft 3.5 m.

Type: Cargo ship. MMSI: 230987660.

Date/timePositionNaut miles runAvg speedWind from/ knotsBaromVisibWave heightAir tempDewpointWater temp
2014-Sep-16 09:32N 60°09' E 024°56'0 0.0
2014-Sep-16 08:29N 60°09' E 024°56'0 0.0
2014-Sep-16 03:34N 60°09' E 024°56'52 7.0
2014-Sep-15 20:06N 59°37' E 026°18'9 0.5
2014-Sep-15 00:04N 59°31' E 026°33'28 1.7
2014-Sep-14 07:33N 59°60' E 026°29'7 6.9
2014-Sep-14 06:33N 60°01' E 026°42'9 8.1
2014-Sep-14 05:29N 59°60' E 026°59'95 7.9
2014-Sep-13 17:30N 59°53' E 030°09'2 0.1
2014-Sep-13 03:04N 59°53' E 030°13'104 6.2
2014-Sep-12 10:25N 59°59' E 026°46'7 7.5
2014-Sep-12 09:29N 59°58' E 026°32'54 7.4
2014-Sep-12 02:12N 59°44' E 024°48'5 7.2
2014-Sep-12 01:33N 59°43' E 024°39'7 7.4
2014-Sep-12 00:33N 59°39' E 024°27'324 7.7
2014-Sep-10 06:12N 55°01' E 019°15'5 8.1
2014-Sep-10 05:33N 54°57' E 019°11'8 8.1
2014-Sep-10 04:33N 54°49' E 019°05'8 8.3
2014-Sep-10 03:33N 54°42' E 018°59'9 8.7
2014-Sep-10 02:33N 54°34' E 018°52'9 8.8
2014-Sep-10 01:33N 54°28' E 018°42'4 3.4
2014-Sep-10 00:31N 54°24' E 018°40'0 0.0
2014-Sep-09 23:31N 54°24' E 018°40'0 0.0
2014-Sep-09 22:31N 54°24' E 018°40'0 0.0
2014-Sep-09 21:31N 54°24' E 018°40'0 0.0
2014-Sep-09 20:31N 54°24' E 018°40'0 0.0
2014-Sep-09 19:31N 54°24' E 018°40'0 0.0
2014-Sep-09 18:31N 54°24' E 018°40'0 0.0
2014-Sep-09 17:31N 54°24' E 018°40'0 0.0
2014-Sep-09 16:31N 54°24' E 018°40'0 0.0
2014-Sep-09 15:31N 54°24' E 018°40'0 0.0
2014-Sep-09 14:31N 54°24' E 018°40'0 0.0
2014-Sep-09 13:31N 54°24' E 018°40'0 0.0
2014-Sep-09 12:34N 54°24' E 018°40'0 0.0
2014-Sep-09 11:30N 54°24' E 018°40'0 0.0
2014-Sep-09 10:33N 54°24' E 018°40'3 3.1
2014-Sep-09 09:33N 54°27' E 018°41'9 9.0
2014-Sep-09 08:33N 54°34' E 018°51'9 8.8
2014-Sep-09 07:33N 54°42' E 018°57'8 7.8
2014-Sep-09 06:33N 54°49' E 018°50'8 8.0
2014-Sep-09 05:33N 54°52' E 018°37'8 7.8
2014-Sep-09 04:33N 54°56' E 018°26'9 8.6
2014-Sep-09 03:33N 55°01' E 018°14'8 8.0
2014-Sep-09 02:33N 55°05' E 018°01'114 4.2
2014-Sep-07 23:33N 55°58' E 015°04'8 8.2
2014-Sep-07 22:34N 55°59' E 015°19'8 8.1
2014-Sep-07 21:33N 55°59' E 015°33'8 8.0
2014-Sep-07 20:33N 55°59' E 015°48'8 8.1
2014-Sep-07 19:33N 56°02' E 016°02'8 8.2
2014-Sep-07 18:33N 56°03' E 016°16'8 8.0
2014-Sep-07 17:33N 56°05' E 016°30'8 7.7
2014-Sep-07 16:33N 56°09' E 016°42'8 7.7
2014-Sep-07 15:33N 56°13' E 016°53'8 7.8
2014-Sep-07 14:33N 56°18' E 017°04'8 7.6
2014-Sep-07 13:33N 56°22' E 017°16'8 7.6
2014-Sep-07 12:32N 56°27' E 017°27'8 7.7
2014-Sep-07 11:33N 56°31' E 017°38'8 7.6
2014-Sep-07 10:33N 56°36' E 017°49'8 7.8
2014-Sep-07 09:33N 56°40' E 018°01'8 7.9
2014-Sep-07 08:33N 56°45' E 018°13'8 7.9
2014-Sep-07 07:33N 56°50' E 018°24'8 8.2
2014-Sep-07 06:33N 56°54' E 018°37'8 8.3
2014-Sep-07 05:33N 56°57' E 018°51'9 8.4
2014-Sep-07 04:31N 57°01' E 019°06'8 8.3
2014-Sep-07 03:33N 57°04' E 019°19'10 8.3
2014-Sep-07 02:18N 57°08' E 019°36'9 8.3
2014-Sep-07 01:15N 57°12' E 019°51'6 8.2
2014-Sep-07 00:33N 57°14' E 020°00'8 8.1
2014-Sep-06 23:31N 57°18' E 020°15'8 8.2
2014-Sep-06 22:32N 57°22' E 020°28'  

Dump ship's entire track history